CDT,Max TemperatureF,Mean TemperatureF,Min TemperatureF,Max Dew PointF,MeanDew PointF,Min DewpointF,Max Humidity, Mean Humidity, Min Humidity, Max Sea Level PressureIn, Mean Sea Level PressureIn, Min Sea Level PressureIn, Max VisibilityMiles, Mean VisibilityMiles, Min VisibilityMiles, Max Wind SpeedMPH, Mean Wind SpeedMPH, Max Gust SpeedMPH,PrecipitationIn, CloudCover, Events, WindDirDegrees
2013-9-1,86,74,61,72,66,59,96,78,58,29.84,29.79,29.75,10,9,0,13,4,,0.00,2,Fog-Thunderstorm,280
2013-9-2,78,68,58,64,59,55,91,74,48,30.01,29.93,29.84,10,10,10,12,7,,0.00,1,,339
2013-9-3,75,64,54,58,55,52,92,73,50,30.11,30.06,30.01,10,10,7,6,2,,0.00,2,,331
2013-9-4,81,66,52,63,57,50,96,70,39,30.16,30.12,30.06,10,9,0,10,2,,0.00,1,Fog,265
2013-9-5,80,70,61,68,61,51,93,74,55,30.23,30.19,30.13,10,10,10,13,4,,0.00,1,,79
2013-9-6,86,72,57,66,60,52,87,68,48,30.22,30.14,30.03,10,10,10,10,5,17,0.00,1,,162
2013-9-7,86,74,63,68,64,61,89,72,47,30.03,29.97,29.90,10,10,3,12,6,17,0.25,1,Rain-Thunderstorm,212
2013-9-8,83,76,70,71,68,66,89,78,64,30.01,29.96,29.92,10,9,7,15,7,21,0.00,4,Thunderstorm,83
2013-9-9,94,82,70,73,71,67,93,74,48,29.95,29.89,29.84,10,8,4,12,7,,0.00,0,,191
2013-9-10,95,83,72,69,65,63,73,57,35,30.04,29.99,29.92,10,10,10,21,10,33,0.00,0,,226
2013-9-11,91,82,72,69,67,64,85,65,45,30.07,30.04,30.01,10,10,7,15,9,20,0.00,2,,256
2013-9-12,80,70,58,68,57,48,92,64,32,30.10,30.03,30.00,10,10,10,21,9,28,0.00,1,,309
2013-9-13,68,59,49,52,44,36,88,61,31,30.21,30.15,30.10,10,10,10,16,8,18,0.00,0,,25
2013-9-14,72,58,43,48,43,38,90,62,31,30.20,30.12,30.03,10,10,10,10,4,,0.00,0,,174
2013-9-15,62,59,56,58,52,44,93,79,61,30.17,30.05,29.98,10,10,3,13,8,17,0.18,6,Rain,225
2013-9-16,68,58,48,55,50,45,94,74,48,30.36,30.29,30.17,10,10,10,15,10,25,0.00,1,,48
2013-9-17,71,58,45,56,51,44,95,74,55,30.33,30.23,30.10,10,9,4,10,5,16,0.00,3,,111
2013-9-18,81,70,60,71,62,53,92,77,58,30.11,30.01,29.91,10,10,0,17,7,22,0.80,4,Rain-Thunderstorm,161
2013-9-19,91,80,69,70,68,63,91,71,47,29.95,29.88,29.78,10,9,5,17,10,25,0.02,2,Rain-Thunderstorm,210
2013-9-20,71,64,56,66,60,51,96,80,52,29.88,29.85,29.79,10,10,2,22,10,25,0.18,3,Rain-Thunderstorm,265
2013-9-21,68,59,50,52,49,46,94,73,45,29.97,29.90,29.86,10,10,10,15,9,22,0.00,1,,323
2013-9-22,69,56,43,50,46,41,93,70,40,30.07,30.01,29.97,10,10,2,10,2,,0.00,0,,84
2013-9-23,73,58,45,50,47,43,93,70,42,30.11,30.05,30.00,10,10,10,12,6,,0.00,0,,93
2013-9-24,75,62,48,53,50,46,90,70,42,30.03,29.97,29.90,10,10,10,14,7,18,0.00,0,,91
2013-9-25,76,64,51,52,50,49,92,70,39,29.96,29.93,29.90,10,8,4,10,7,17,0.00,0,,62
2013-9-26,80,64,49,55,51,48,95,68,38,30.08,30.03,29.96,10,8,2,8,6,,0.00,0,,88
2013-9-27,82,65,48,55,50,47,94,61,29,30.16,30.09,30.03,10,9,3,14,5,20,0.00,0,,120
2013-9-28,82,70,57,67,57,51,95,68,43,30.06,29.99,29.90,10,9,3,26,11,37,0.42,4,Rain,188
2013-9-29,70,60,51,59,48,40,97,71,35,30.09,30.03,29.99,10,8,0,13,7,17,0.01,2,Fog,13
2013-9-30,76,60,44,56,48,42,95,68,34,30.01,29.95,29.87,10,9,2,13,4,17,0.00,0,,174